Details for Ryanair at LICC




Go Back


Latest METAR
Local Time

LICC 232320Z 27011KT 9999 FEW090 08/05 Q1002

24/02/2018, 00:47:29

Description
Results
Ryanair Logo
Number of Pilots based at LICC
0 Pilots Based here
Number of Ryanair Flights Departed from LICC
2 Flights Departed
Number of Ryanair Flights Arrived at LICC
1 Flights Arrived
Number of Ryanair Schedules Departing from LICC
45 Schedules
Number of Ryanair Schedules Arriving at LICC
48 Schedules
Number of Ryanair Schedules Departing from LICC availible today
25 Schedules Today
Number of Ryanair Schedules Arriving at LICC availible today
25 Schedules Today
Average Landing Rate at LICC
-203 fpm
Ryanair Average Landing Rate at LICC
-180 fpm
Total Fuel Purchased at LICC by Ryanair
5,714.81 kgs / 12,598.87 lbs

Pilots Based at LICC


Pilot ID
Pilot Name
Pilot Rank
No. of Flights
No. of Flying Hours
There are no pilots assigned to this hub!   Will you be the first?
Content